Time;durP1;ratioP1;P1;durP2;ratioP2;P2;SDS_P1;SDS_P2;PMS_P1;PMS_P2;Temp;Humidity;BMP_temperature;BMP_pressure;BME280_temperature;BME280_humidity;BME280_pressure;Samples;Min_cycle;Max_cycle;Signal;HPM_P1;HPM_P2
2022/08/25 00:01:13;;;;;;;3.42;2.97;;;23.80;91.20;;;;;;5048881;28;20057;-72
2022/08/25 00:03:40;;;;;;;4.47;3.17;;;24.40;91.50;;;;;;5048857;28;20111;-72
2022/08/25 00:06:07;;;;;;;5.63;2.95;;;23.70;90.90;;;;;;5049165;28;20074;-72
2022/08/25 00:08:36;;;;;;;3.05;2.78;;;23.80;90.80;;;;;;5049141;28;20029;-72
2022/08/25 00:11:03;;;;;;;3.88;3.58;;;23.80;90.70;;;;;;5049409;28;20077;-72
2022/08/25 00:13:28;;;;;;;2.80;2.35;;;23.80;90.70;;;;;;5068138;28;20023;-71
2022/08/25 00:15:54;;;;;;;3.05;2.50;;;23.90;90.70;;;;;;5069132;28;20609;-72
2022/08/25 00:18:19;;;;;;;6.07;2.80;;;23.80;90.60;;;;;;5067509;28;20104;-72
2022/08/25 00:20:46;;;;;;;3.95;3.00;;;23.60;90.40;;;;;;5069504;28;20085;-71
2022/08/25 00:23:12;;;;;;;3.90;2.70;;;23.80;90.50;;;;;;5068753;28;20102;-72
2022/08/25 00:25:37;;;;;;;3.22;2.92;;;23.70;90.30;;;;;;5069480;28;20461;-72
2022/08/25 00:28:03;;;;;;;5.13;2.70;;;23.70;90.10;;;;;;5069273;28;20024;-72
2022/08/25 00:30:29;;;;;;;3.13;2.42;;;23.70;90.00;;;;;;5068419;28;20028;-72
2022/08/25 00:32:54;;;;;;;4.35;3.45;;;23.70;89.90;;;;;;5069252;28;20035;-72
2022/08/25 00:35:20;;;;;;;9.07;3.20;;;23.70;90.00;;;;;;5066306;28;20116;-72
2022/08/25 00:37:45;;;;;;;3.85;3.20;;;24.40;90.00;;;;;;5069249;28;20025;-72
2022/08/25 00:40:11;;;;;;;4.90;3.95;;;23.70;89.20;;;;;;5067841;28;20107;-72
2022/08/25 00:42:37;;;;;;;10.07;3.33;;;24.60;89.80;;;;;;5056263;28;20124;-72
2022/08/25 00:45:05;;;;;;;6.25;3.75;;;23.70;88.90;;;;;;5070678;28;20029;-71
2022/08/25 00:47:30;;;;;;;3.53;3.00;;;23.70;88.40;;;;;;5072232;28;20086;-72
2022/08/25 00:49:58;;;;;;;5.65;3.10;;;23.70;88.50;;;;;;5072950;28;20250;-72
2022/08/25 00:52:28;;;;;;;4.00;3.30;;;23.60;88.90;;;;;;5072289;28;20074;-72
2022/08/25 00:54:58;;;;;;;6.10;3.78;;;23.70;89.20;;;;;;5069386;28;20386;-72
2022/08/25 00:57:28;;;;;;;5.07;3.85;;;23.70;89.10;;;;;;5052374;28;20546;-72
2022/08/25 00:59:55;;;;;;;5.63;2.83;;;24.00;89.20;;;;;;5051839;28;20033;-71
2022/08/25 01:02:20;;;;;;;6.20;3.17;;;23.50;88.50;;;;;;5052245;28;20064;-71
2022/08/25 01:04:46;;;;;;;3.92;2.97;;;23.50;88.30;;;;;;5052075;28;20057;-72
2022/08/25 01:07:13;;;;;;;4.03;3.10;;;23.60;88.30;;;;;;5052474;28;20025;-72
2022/08/25 01:09:40;;;;;;;4.95;3.00;;;23.40;89.20;;;;;;5052410;28;20102;-72
2022/08/25 01:12:06;;;;;;;5.28;3.42;;;23.40;88.40;;;;;;5060084;28;20013;-71
2022/08/25 01:14:34;;;;;;;10.55;3.03;;;23.60;88.40;;;;;;5070231;28;20086;-72
2022/08/25 01:16:59;;;;;;;4.55;3.42;;;23.40;88.90;;;;;;5072215;28;20024;-71
2022/08/25 01:19:28;;;;;;;5.10;2.88;;;23.30;88.60;;;;;;5071990;28;20074;-71
2022/08/25 01:21:54;;;;;;;5.65;3.80;;;23.40;89.10;;;;;;5072272;28;20052;-72
2022/08/25 01:24:30;;;;;;;4.45;2.83;;;23.20;88.70;;;;;;5071710;28;20067;-72
2022/08/25 01:26:57;;;;;;;5.20;3.30;;;23.20;88.20;;;;;;5071970;28;20531;-72
2022/08/25 01:29:25;;;;;;;4.18;3.63;;;23.20;88.70;;;;;;5071175;28;20025;-71
2022/08/25 01:32:04;;;;;;;7.95;3.72;;;23.20;87.00;;;;;;5067074;28;20032;-72
2022/08/25 01:34:32;;;;;;;4.13;2.88;;;23.30;88.60;;;;;;5065604;28;20059;-72
2022/08/25 01:36:59;;;;;;;5.22;3.38;;;23.80;88.90;;;;;;5071954;28;20029;-71
2022/08/25 01:39:27;;;;;;;5.38;3.45;;;23.40;88.30;;;;;;5071428;28;20032;-71
2022/08/25 01:42:01;;;;;;;4.47;3.38;;;23.20;87.60;;;;;;5071844;28;20055;-72
2022/08/25 01:44:27;;;;;;;4.45;3.20;;;23.10;87.90;;;;;;5071449;28;20074;-71
2022/08/25 01:46:53;;;;;;;4.35;3.53;;;23.10;87.00;;;;;;5070610;28;20052;-72
2022/08/25 01:49:19;;;;;;;5.93;3.20;;;23.10;86.80;;;;;;5071312;28;20060;-72
2022/08/25 01:51:54;;;;;;;4.57;3.13;;;22.80;86.40;;;;;;5059593;28;20551;-72
2022/08/25 01:54:19;;;;;;;6.50;3.80;;;23.10;87.10;;;;;;5070536;28;20474;-71
2022/08/25 01:56:45;;;;;;;4.15;3.65;;;23.40;86.20;;;;;;5070221;28;20035;-72
2022/08/25 01:59:15;;;;;;;4.82;3.22;;;23.10;85.80;;;;;;5071176;28;20473;-72
2022/08/25 02:01:40;;;;;;;3.88;2.75;;;23.20;86.30;;;;;;5060900;28;20076;-71
2022/08/25 02:04:06;;;;;;;4.50;3.15;;;23.30;85.70;;;;;;5071357;28;20135;-71
2022/08/25 02:06:32;;;;;;;4.50;3.17;;;23.30;85.60;;;;;;5069732;28;20536;-72
2022/08/25 02:09:04;;;;;;;5.00;3.38;;;23.30;85.60;;;;;;5071594;28;20547;-72
2022/08/25 02:11:31;;;;;;;3.85;3.13;;;23.30;85.60;;;;;;5056397;28;20029;-72
2022/08/25 02:13:58;;;;;;;6.70;3.30;;;23.30;85.20;;;;;;5071112;28;20020;-72
2022/08/25 02:16:28;;;;;;;4.35;3.03;;;23.40;85.50;;;;;;5069338;28;20024;-72
2022/08/25 02:18:54;;;;;;;5.22;3.30;;;23.30;85.80;;;;;;5070713;28;20023;-72
2022/08/25 02:21:20;;;;;;;4.72;3.72;;;23.40;84.90;;;;;;5070488;28;20465;-71
2022/08/25 02:23:46;;;;;;;4.65;3.83;;;23.40;84.60;;;;;;5070670;28;20070;-72
2022/08/25 02:26:15;;;;;;;3.83;3.08;;;23.90;84.60;;;;;;5070292;28;20070;-71
2022/08/25 02:28:42;;;;;;;3.63;3.17;;;23.30;84.30;;;;;;5070782;28;20063;-72
2022/08/25 02:31:07;;;;;;;5.95;3.55;;;23.40;84.30;;;;;;5065657;28;20028;-72
2022/08/25 02:33:33;;;;;;;5.47;3.78;;;24.40;84.80;;;;;;5070208;28;20078;-72
2022/08/25 02:36:00;;;;;;;4.55;3.05;;;24.60;84.60;;;;;;5070956;28;20107;-72
2022/08/25 02:38:27;;;;;;;5.88;3.25;;;23.10;84.30;;;;;;5070276;28;20036;-72
2022/08/25 02:40:54;;;;;;;3.50;3.20;;;23.30;84.40;;;;;;5070369;28;20038;-71
2022/08/25 02:43:20;;;;;;;5.55;4.03;;;23.30;84.40;;;;;;5070116;28;20033;-71
2022/08/25 02:45:45;;;;;;;4.13;3.70;;;23.30;84.20;;;;;;5068047;28;20085;-71
2022/08/25 02:48:11;;;;;;;7.95;3.05;;;23.30;84.20;;;;;;5050033;28;20025;-72
2022/08/25 02:50:36;;;;;;;7.80;4.13;;;23.20;84.00;;;;;;5050565;28;20036;-72
2022/08/25 02:53:02;;;;;;;5.70;3.45;;;23.20;84.00;;;;;;5050403;28;20535;-71
2022/08/25 02:55:27;;;;;;;6.75;3.80;;;23.10;84.10;;;;;;5049351;28;20047;-72
2022/08/25 02:57:53;;;;;;;4.03;3.42;;;23.10;84.20;;;;;;5050203;28;20478;-72
2022/08/25 03:00:19;;;;;;;5.30;3.17;;;23.60;84.80;;;;;;5049763;28;20102;-72
2022/08/25 03:02:46;;;;;;;5.70;3.80;;;23.00;84.70;;;;;;5050083;28;20041;-72
2022/08/25 03:05:12;;;;;;;4.07;3.67;;;22.90;84.80;;;;;;5048527;28;20542;-71
2022/08/25 03:07:39;;;;;;;3.80;3.45;;;23.00;85.10;;;;;;5049539;28;20029;-72
2022/08/25 03:10:11;;;;;;;5.07;3.13;;;22.90;85.20;;;;;;5064936;28;20032;-72
2022/08/25 03:12:37;;;;;;;4.80;3.15;;;22.90;85.60;;;;;;5062108;28;20016;-72
2022/08/25 03:15:03;;;;;;;3.88;3.50;;;23.50;86.10;;;;;;5069920;28;20086;-72
2022/08/25 03:17:28;;;;;;;5.35;3.70;;;22.60;85.80;;;;;;5069560;28;20043;-72
2022/08/25 03:19:54;;;;;;;5.57;3.60;;;22.60;85.80;;;;;;5070130;28;20469;-72
2022/08/25 03:22:20;;;;;;;6.43;3.67;;;22.50;85.90;;;;;;5069816;28;20028;-71
2022/08/25 03:24:45;;;;;;;3.92;3.10;;;22.50;86.20;;;;;;5068372;28;20040;-71
2022/08/25 03:27:11;;;;;;;5.78;3.90;;;22.50;86.30;;;;;;5068230;28;20029;-71
2022/08/25 03:29:37;;;;;;;6.57;4.30;;;22.50;86.20;;;;;;5070026;28;20116;-71
2022/08/25 03:32:03;;;;;;;6.82;3.60;;;22.40;86.30;;;;;;5069611;28;20035;-71
2022/08/25 03:34:29;;;;;;;7.70;3.55;;;22.40;86.40;;;;;;5069708;28;20028;-71
2022/08/25 03:36:56;;;;;;;4.55;3.85;;;22.40;86.50;;;;;;5059454;28;20546;-71
2022/08/25 03:39:24;;;;;;;5.07;3.83;;;23.30;87.20;;;;;;5061610;28;20029;-71
2022/08/25 03:41:51;;;;;;;4.90;4.35;;;22.40;87.10;;;;;;5064236;28;20032;-71
2022/08/25 03:44:19;;;;;;;6.60;3.38;;;22.20;87.10;;;;;;5069356;28;20047;-72
2022/08/25 03:46:50;;;;;;;7.95;4.45;;;22.20;87.10;;;;;;5069859;28;20123;-71
2022/08/25 03:49:21;;;;;;;5.90;3.80;;;22.20;87.70;;;;;;5068130;28;20032;-71
2022/08/25 03:51:49;;;;;;;5.63;4.07;;;22.00;87.40;;;;;;5070010;28;20020;-71
2022/08/25 03:54:18;;;;;;;4.05;3.70;;;22.50;87.60;;;;;;5068723;28;20028;-71
2022/08/25 03:56:44;;;;;;;6.63;3.30;;;22.10;87.50;;;;;;5069742;28;20032;-71
2022/08/25 03:59:10;;;;;;;4.38;3.35;;;22.00;87.20;;;;;;5067968;28;20025;-71
2022/08/25 04:01:37;;;;;;;4.93;3.30;;;22.10;87.40;;;;;;5069448;28;20053;-72
2022/08/25 04:04:04;;;;;;;8.50;4.15;;;22.10;87.60;;;;;;5069383;28;20397;-72
2022/08/25 04:06:31;;;;;;;4.93;3.67;;;22.60;87.60;;;;;;5062059;28;20032;-71
2022/08/25 04:08:57;;;;;;;4.47;3.58;;;22.50;87.50;;;;;;5062789;28;20128;-71
2022/08/25 04:11:24;;;;;;;5.05;3.10;;;22.00;86.70;;;;;;5054930;28;20025;-71
2022/08/25 04:13:50;;;;;;;4.50;3.58;;;22.00;87.00;;;;;;5068441;28;20119;-72
2022/08/25 04:16:22;;;;;;;7.80;3.47;;;22.00;86.80;;;;;;5069317;28;20024;-72
2022/08/25 04:18:49;;;;;;;5.97;3.80;;;22.00;87.50;;;;;;5042969;28;20021;-72
2022/08/25 04:21:16;;;;;;;6.57;3.80;;;22.00;87.00;;;;;;5073168;28;20024;-72
2022/08/25 04:23:43;;;;;;;4.55;3.58;;;22.10;86.90;;;;;;5072528;28;20028;-72
2022/08/25 04:26:11;;;;;;;6.03;3.90;;;22.90;87.50;;;;;;5073112;28;20021;-72
2022/08/25 04:28:37;;;;;;;5.70;3.50;;;21.90;87.10;;;;;;5071895;28;20013;-72
2022/08/25 04:31:09;;;;;;;6.10;3.60;;;21.90;87.00;;;;;;5073234;28;20023;-72
2022/08/25 04:33:35;;;;;;;5.78;4.10;;;22.00;87.70;;;;;;5072802;28;20457;-72
2022/08/25 04:36:01;;;;;;;4.18;3.83;;;21.90;87.50;;;;;;5065741;28;20033;-72
2022/08/25 04:38:27;;;;;;;4.07;3.45;;;21.80;87.10;;;;;;5065921;28;20382;-71
2022/08/25 04:40:57;;;;;;;4.88;3.78;;;21.90;87.40;;;;;;5073120;28;20048;-72
2022/08/25 04:43:23;;;;;;;4.20;3.80;;;21.80;88.30;;;;;;5072390;28;20484;-72
2022/08/25 04:45:48;;;;;;;5.38;3.90;;;21.90;87.80;;;;;;5072793;28;20024;-72
2022/08/25 04:48:14;;;;;;;4.95;4.03;;;21.70;87.80;;;;;;5072422;28;20037;-72
2022/08/25 04:50:40;;;;;;;9.18;4.53;;;21.70;87.90;;;;;;5070867;28;20027;-72
2022/08/25 04:53:05;;;;;;;7.72;4.20;;;21.70;88.10;;;;;;5072493;28;20043;-72
2022/08/25 04:55:31;;;;;;;8.88;4.45;;;21.60;87.90;;;;;;5072172;28;20039;-72
2022/08/25 04:57:56;;;;;;;4.65;4.22;;;22.60;88.60;;;;;;5065578;28;20071;-72
2022/08/25 05:00:22;;;;;;;5.85;3.92;;;21.60;87.80;;;;;;5064972;28;20040;-72
2022/08/25 05:02:48;;;;;;;5.93;4.63;;;21.70;88.10;;;;;;5072562;28;20035;-72
2022/08/25 05:05:13;;;;;;;5.43;4.13;;;21.90;88.20;;;;;;5071512;28;20025;-72
2022/08/25 05:07:39;;;;;;;6.80;4.97;;;21.70;88.10;;;;;;5055865;28;20039;-71
2022/08/25 05:10:05;;;;;;;4.53;4.10;;;21.60;88.30;;;;;;5067500;28;20118;-72
2022/08/25 05:12:31;;;;;;;7.75;4.28;;;21.50;88.10;;;;;;5063008;28;20056;-71
2022/08/25 05:15:48;;;;;;;8.65;4.25;;;21.50;88.40;;;;;;5072345;28;20421;-71
2022/08/25 05:17:42;;;;;;;6.32;5.25;;;21.40;88.50;;;;;;5072406;28;20040;-71
2022/08/25 05:20:08;;;;;;;6.90;4.68;;;21.50;88.70;;;;;;5071820;28;20082;-72
2022/08/25 05:22:33;;;;;;;8.25;5.13;;;21.50;88.50;;;;;;5072048;28;20024;-71
2022/08/25 05:24:59;;;;;;;8.02;4.60;;;21.40;88.70;;;;;;5070587;28;20062;-72
2022/08/25 05:27:24;;;;;;;6.50;4.65;;;22.70;89.60;;;;;;5071900;28;20036;-72
2022/08/25 05:29:50;;;;;;;8.35;4.20;;;21.40;88.70;;;;;;5072139;28;20465;-72
2022/08/25 05:32:15;;;;;;;4.55;4.15;;;21.40;88.80;;;;;;5071643;28;20031;-72
2022/08/25 05:34:41;;;;;;;7.88;5.18;;;21.50;88.90;;;;;;5071404;28;20038;-71
2022/08/25 05:37:07;;;;;;;5.68;4.80;;;21.50;89.20;;;;;;5059639;28;20035;-72
2022/08/25 05:39:32;;;;;;;9.65;4.80;;;22.00;89.40;;;;;;5071588;28;20025;-72
2022/08/25 05:41:58;;;;;;;6.95;4.28;;;21.60;89.20;;;;;;5071904;28;20036;-72
2022/08/25 05:44:25;;;;;;;8.10;4.60;;;21.60;89.70;;;;;;5055618;28;20039;-72
2022/08/25 05:46:51;;;;;;;6.72;5.18;;;21.60;88.80;;;;;;5065662;28;20031;-72
2022/08/25 05:49:17;;;;;;;7.50;4.15;;;21.70;88.80;;;;;;5066825;28;20377;-72
2022/08/25 05:51:42;;;;;;;7.18;4.30;;;21.70;88.80;;;;;;5071836;28;20469;-72
2022/08/25 05:54:08;;;;;;;7.70;4.90;;;21.70;88.80;;;;;;5071489;28;20035;-72
2022/08/25 05:56:33;;;;;;;5.40;4.60;;;21.60;88.90;;;;;;5071326;28;20029;-72
2022/08/25 05:58:59;;;;;;;7.55;4.40;;;21.60;88.70;;;;;;5071466;28;20032;-72
2022/08/25 06:04:15;;;;;;;6.40;3.95;;;22.80;89.50;;;;;;5070493;28;20235;-72
2022/08/25 06:06:40;;;;;;;6.90;4.78;;;21.90;87.30;;;;;;5071520;28;20035;-72
2022/08/25 06:09:08;;;;;;;8.95;4.68;;;21.80;88.50;;;;;;5071337;28;20491;-72
2022/08/25 06:11:34;;;;;;;8.32;5.00;;;22.00;88.80;;;;;;5070815;28;20465;-72
2022/08/25 06:13:59;;;;;;;6.28;4.70;;;22.00;88.70;;;;;;5071177;28;20031;-71
2022/08/25 06:16:25;;;;;;;6.75;4.18;;;21.90;88.50;;;;;;5070620;28;20033;-72
2022/08/25 06:18:50;;;;;;;4.40;3.95;;;22.10;88.70;;;;;;5069533;28;20035;-72
2022/08/25 06:21:17;;;;;;;6.40;4.85;;;22.10;88.40;;;;;;5070335;28;20051;-72
2022/08/25 06:23:43;;;;;;;6.88;4.65;;;22.10;88.00;;;;;;5070573;28;20040;-72
2022/08/25 06:26:12;;;;;;;8.98;4.95;;;22.00;87.90;;;;;;5070636;28;20057;-72
2022/08/25 06:28:38;;;;;;;6.28;4.85;;;22.10;88.40;;;;;;5070713;28;20025;-72
2022/08/25 06:31:03;;;;;;;8.98;5.07;;;22.20;87.60;;;;;;5070584;28;20031;-72
2022/08/25 06:33:29;;;;;;;7.70;5.47;;;22.20;87.60;;;;;;5069814;28;20595;-72
2022/08/25 06:35:56;;;;;;;8.35;4.30;;;22.20;87.30;;;;;;5070978;28;20048;-72
2022/08/25 06:38:22;;;;;;;7.53;5.22;;;22.50;87.90;;;;;;5057595;28;20029;-71
2022/08/25 06:40:49;;;;;;;6.18;4.45;;;22.30;87.70;;;;;;5063699;28;20029;-72
2022/08/25 06:43:15;;;;;;;7.35;4.32;;;22.30;87.70;;;;;;5049571;28;20132;-72
2022/08/25 06:45:42;;;;;;;9.25;4.15;;;22.40;87.50;;;;;;5048925;28;20131;-72
2022/08/25 06:48:08;;;;;;;8.68;4.68;;;22.40;87.50;;;;;;5050002;28;20108;-73
2022/08/25 06:50:36;;;;;;;5.40;3.97;;;22.40;87.40;;;;;;5043526;28;20109;-72
2022/08/25 06:53:02;;;;;;;6.10;4.13;;;22.50;87.40;;;;;;5049668;28;20518;-72
2022/08/25 06:55:27;;;;;;;5.47;4.20;;;23.80;88.00;;;;;;5040713;28;20100;-71
2022/08/25 06:57:53;;;;;;;5.50;4.40;;;22.50;86.90;;;;;;5048447;28;20021;-72
2022/08/25 07:00:19;;;;;;;7.15;4.55;;;22.60;86.60;;;;;;5048043;28;20490;-71
2022/08/25 07:02:46;;;;;;;5.70;4.03;;;23.00;86.50;;;;;;5048087;28;20036;-71
2022/08/25 07:05:11;;;;;;;5.93;5.32;;;22.80;86.20;;;;;;5046484;28;20035;-71
2022/08/25 07:07:37;;;;;;;7.05;5.13;;;22.70;85.80;;;;;;5050294;28;20025;-71
2022/08/25 07:10:04;;;;;;;10.45;4.35;;;23.00;85.70;;;;;;5049147;28;20095;-71
2022/08/25 07:12:30;;;;;;;11.43;5.00;;;23.00;85.80;;;;;;5048631;28;20490;-72
2022/08/25 07:14:55;;;;;;;7.32;4.95;;;23.00;85.60;;;;;;5044433;28;20029;-71
2022/08/25 07:17:22;;;;;;;7.18;4.75;;;23.20;85.70;;;;;;5042194;28;20017;-71
2022/08/25 07:19:48;;;;;;;7.28;4.93;;;23.20;85.50;;;;;;5053279;28;20025;-71
2022/08/25 07:22:14;;;;;;;7.20;4.70;;;22.90;85.00;;;;;;5047682;28;20455;-71
2022/08/25 07:24:39;;;;;;;8.27;4.93;;;23.30;85.00;;;;;;5048299;28;20040;-71
2022/08/25 07:27:05;;;;;;;12.38;4.25;;;24.20;85.00;;;;;;5050394;28;20469;-71
2022/08/25 07:29:32;;;;;;;8.45;5.35;;;24.20;84.60;;;;;;5054014;28;20037;-71
2022/08/25 07:32:01;;;;;;;7.78;4.55;;;23.70;83.80;;;;;;5048315;28;20033;-71
2022/08/25 07:37:11;;;;;;;7.13;3.70;;;25.00;82.40;;;;;;5049542;28;20090;-72
2022/08/25 07:39:36;;;;;;;4.45;3.78;;;24.20;83.00;;;;;;5049578;28;20470;-70
2022/08/25 07:42:03;;;;;;;6.20;3.67;;;24.10;82.50;;;;;;5049338;28;20466;-71
2022/08/25 07:44:29;;;;;;;7.07;4.35;;;24.40;82.40;;;;;;5046833;28;20037;-70
2022/08/25 07:46:55;;;;;;;6.53;3.50;;;24.40;82.00;;;;;;5049887;28;20031;-71
2022/08/25 07:49:24;;;;;;;6.00;3.78;;;24.50;81.80;;;;;;5054396;28;20028;-71
2022/08/25 07:51:51;;;;;;;7.82;3.60;;;24.70;81.60;;;;;;5049539;28;20021;-70
2022/08/25 07:54:17;;;;;;;5.90;3.55;;;25.60;81.60;;;;;;5047889;28;20477;-70
2022/08/25 07:56:42;;;;;;;4.68;3.50;;;24.90;80.30;;;;;;5058876;28;20098;-70
2022/08/25 07:59:08;;;;;;;7.32;3.65;;;24.90;79.70;;;;;;5056508;28;20032;-71
2022/08/25 08:01:34;;;;;;;6.40;4.10;;;24.90;80.10;;;;;;5060143;28;20033;-71
2022/08/25 08:04:00;;;;;;;6.45;3.33;;;24.90;79.90;;;;;;5055431;28;20032;-70
2022/08/25 08:06:25;;;;;;;5.80;3.47;;;25.50;80.40;;;;;;5066489;28;20498;-71
2022/08/25 08:08:53;;;;;;;7.88;3.83;;;24.90;79.70;;;;;;5066259;28;20020;-70
2022/08/25 08:11:20;;;;;;;5.32;3.55;;;24.90;80.30;;;;;;5056084;28;20052;-70
2022/08/25 08:13:47;;;;;;;6.88;3.72;;;25.00;80.30;;;;;;5051300;28;20029;-70
2022/08/25 08:16:15;;;;;;;7.38;3.28;;;25.00;80.20;;;;;;5055040;28;20547;-71
2022/08/25 08:18:42;;;;;;;3.92;2.67;;;25.10;80.10;;;;;;5063720;28;20036;-71
2022/08/25 08:21:12;;;;;;;4.90;3.60;;;25.90;80.30;;;;;;5065252;28;20024;-71
2022/08/25 08:23:38;;;;;;;4.55;2.80;;;25.30;79.70;;;;;;5064466;28;20033;-72
2022/08/25 08:26:04;;;;;;;5.45;3.13;;;26.00;79.10;;;;;;5068460;28;20146;-71
2022/08/25 08:28:30;;;;;;;5.78;3.17;;;26.30;78.70;;;;;;5054010;28;20390;-72
2022/08/25 08:30:55;;;;;;;6.68;3.38;;;26.30;78.80;;;;;;5052615;28;20021;-72
2022/08/25 08:33:22;;;;;;;7.57;3.47;;;25.70;78.10;;;;;;5050911;28;20478;-72
2022/08/25 08:35:56;;;;;;;6.40;3.42;;;26.20;78.30;;;;;;5059611;28;20048;-72
2022/08/25 08:38:21;;;;;;;5.53;3.67;;;27.00;78.90;;;;;;5052991;28;20032;-72
2022/08/25 08:43:51;;;;;;;7.10;3.47;;;26.10;75.70;;;;;;5061825;28;20055;-72
2022/08/25 08:46:17;;;;;;;5.55;3.17;;;26.20;76.90;;;;;;5057704;28;20039;-72
2022/08/25 08:49:02;;;;;;;4.90;2.83;;;26.40;76.50;;;;;;5056730;28;20033;-72
2022/08/25 08:51:38;;;;;;;3.72;2.80;;;26.30;76.60;;;;;;5067584;28;20073;-70
2022/08/25 08:54:13;;;;;;;6.10;3.30;;;26.50;76.60;;;;;;5065319;28;20140;-71
2022/08/25 08:56:45;;;;;;;6.90;3.40;;;26.10;75.60;;;;;;5061543;28;20021;-70
2022/08/25 08:59:25;;;;;;;5.28;2.90;;;26.70;74.70;;;;;;5060586;28;20028;-71
2022/08/25 09:01:58;;;;;;;5.85;2.95;;;27.50;74.90;;;;;;5063486;28;20701;-70
2022/08/25 09:04:39;;;;;;;3.80;3.00;;;27.60;74.40;;;;;;5060487;28;20033;-70
2022/08/25 09:07:11;;;;;;;7.60;3.80;;;26.90;74.10;;;;;;5056189;28;20047;-71
2022/08/25 09:09:40;;;;;;;5.30;2.67;;;27.10;73.60;;;;;;5051064;28;20104;-72
2022/08/25 09:12:37;;;;;;;4.13;2.92;;;27.10;73.20;;;;;;5052896;28;20033;-71
2022/08/25 09:16:53;;;;;;;9.55;2.83;;;27.20;72.20;;;;;;5056149;28;20025;-72
2022/08/25 09:18:27;;;;;;;4.82;2.90;;;27.30;72.10;;;;;;5063600;28;20109;-72
2022/08/25 09:21:18;;;;;;;5.15;2.55;;;27.20;73.60;;;;;;5041126;28;20063;-72
2022/08/25 09:24:10;;;;;;;3.75;3.03;;;27.50;72.30;;;;;;5051148;28;20029;-72
2022/08/25 09:26:48;;;;;;;7.30;3.28;;;27.50;71.70;;;;;;5050771;28;20386;-72
2022/08/25 09:29:23;;;;;;;7.13;2.80;;;27.40;72.30;;;;;;5052699;28;20021;-71
2022/08/25 09:31:49;;;;;;;4.07;2.80;;;27.60;70.70;;;;;;5049468;28;20021;-72
2022/08/25 09:34:21;;;;;;;7.53;2.50;;;27.70;71.80;;;;;;5049159;28;20040;-73
2022/08/25 09:36:49;;;;;;;3.85;2.63;;;27.90;72.40;;;;;;5050682;28;20025;-72
2022/08/25 09:39:15;;;;;;;7.22;2.90;;;27.70;71.20;;;;;;5051287;28;20025;-72
2022/08/25 09:41:49;;;;;;;5.25;2.92;;;28.00;70.80;;;;;;5062957;28;20071;-72
2022/08/25 09:44:18;;;;;;;4.68;2.60;;;28.20;68.70;;;;;;5049005;28;20118;-72
2022/08/25 09:47:00;;;;;;;4.82;2.42;;;28.10;70.60;;;;;;5051501;28;20082;-72
2022/08/25 09:49:44;;;;;;;4.88;2.53;;;28.20;68.90;;;;;;5060193;28;20061;-72
2022/08/25 09:52:41;;;;;;;3.03;2.40;;;28.20;68.80;;;;;;5050762;28;20029;-73
2022/08/25 09:55:12;;;;;;;5.40;3.17;;;29.20;71.10;;;;;;5054547;28;20565;-73
2022/08/25 09:57:50;;;;;;;6.55;2.90;;;28.30;70.20;;;;;;5050402;28;20032;-71
2022/08/25 10:00:24;;;;;;;3.45;3.00;;;29.00;70.20;;;;;;5050694;28;20542;-72
2022/08/25 10:03:17;;;;;;;6.43;2.75;;;28.50;66.80;;;;;;5050951;28;20141;-71
2022/08/25 10:05:56;;;;;;;3.97;2.60;;;28.60;67.20;;;;;;5059926;28;20039;-72
2022/08/25 10:08:38;;;;;;;5.15;2.58;;;28.80;66.40;;;;;;5061090;28;20107;-71
2022/08/25 10:11:07;;;;;;;3.30;2.42;;;28.90;65.90;;;;;;5058511;28;20052;-71
2022/08/25 10:13:49;;;;;;;5.18;2.47;;;28.90;67.10;;;;;;5064059;28;20078;-71
2022/08/25 10:16:27;;;;;;;5.25;2.05;;;29.00;65.40;;;;;;5056518;28;20025;-71
2022/08/25 10:19:01;;;;;;;4.85;2.85;;;29.10;64.70;;;;;;5065814;28;20044;-72
2022/08/25 10:21:26;;;;;;;3.47;2.40;;;29.10;66.30;;;;;;5064354;28;20012;-72
2022/08/25 10:23:54;;;;;;;6.72;2.97;;;29.00;65.40;;;;;;5067017;28;20047;-72
2022/08/25 10:26:54;;;;;;;4.97;2.78;;;29.20;65.40;;;;;;5068087;28;20138;-72
2022/08/25 10:29:49;;;;;;;6.30;2.88;;;29.20;64.00;;;;;;5050361;28;20035;-72
2022/08/25 10:32:26;;;;;;;4.72;2.75;;;29.30;63.50;;;;;;5055559;28;20021;-72
2022/08/25 10:34:54;;;;;;;4.60;2.72;;;29.80;65.10;;;;;;5068392;28;20020;-72
2022/08/25 10:37:30;;;;;;;3.95;2.17;;;29.40;64.70;;;;;;5050634;28;20021;-73
2022/08/25 10:40:11;;;;;;;4.25;2.35;;;29.40;62.60;;;;;;5052926;28;20073;-73
2022/08/25 10:42:40;;;;;;;5.35;2.80;;;29.60;63.90;;;;;;5057756;28;20035;-73
2022/08/25 10:45:43;;;;;;;4.47;2.50;;;29.70;63.20;;;;;;5061098;28;20111;-72
2022/08/25 10:48:23;;;;;;;4.38;2.72;;;29.50;62.90;;;;;;5061772;28;20021;-72
2022/08/25 10:50:52;;;;;;;5.50;2.60;;;31.50;62.60;;;;;;5050384;28;20039;-71
2022/08/25 10:53:41;;;;;;;5.43;2.08;;;29.60;62.50;;;;;;5048485;28;20032;-71
2022/08/25 10:56:27;;;;;;;3.50;2.13;;;29.60;59.90;;;;;;5049827;28;20024;-71
2022/08/25 10:59:12;;;;;;;3.75;2.60;;;29.80;61.90;;;;;;5048546;28;20047;-71
2022/08/25 11:02:06;;;;;;;3.25;2.70;;;29.80;59.50;;;;;;5048640;28;20114;-71
2022/08/25 11:04:41;;;;;;;4.00;1.90;;;29.90;60.10;;;;;;5053128;28;20481;-71
2022/08/25 11:07:15;;;;;;;2.78;1.90;;;29.70;59.90;;;;;;5053978;28;20108;-71
2022/08/25 11:09:45;;;;;;;2.85;1.60;;;29.70;61.50;;;;;;5049225;28;20143;-71
2022/08/25 11:12:18;;;;;;;1.67;1.48;;;30.50;61.60;;;;;;5055239;28;20040;-71
2022/08/25 11:14:55;;;;;;;4.35;1.80;;;29.90;61.30;;;;;;5067205;28;20024;-71
2022/08/25 11:17:25;;;;;;;4.88;1.70;;;29.80;60.60;;;;;;5049068;28;20025;-73
2022/08/25 11:19:57;;;;;;;1.98;1.63;;;29.90;60.30;;;;;;5049896;28;20025;-71
2022/08/25 11:22:56;;;;;;;2.30;1.65;;;29.90;58.60;;;;;;5051309;28;20516;-71
2022/08/25 11:25:25;;;;;;;2.47;1.80;;;30.00;58.60;;;;;;5045141;28;20029;-71
2022/08/25 11:28:00;;;;;;;3.33;2.08;;;30.70;60.60;;;;;;5049774;28;20029;-71
2022/08/25 11:30:27;;;;;;;5.45;1.63;;;29.80;60.20;;;;;;5061949;28;20013;-71
2022/08/25 11:32:54;;;;;;;1.42;1.30;;;30.40;59.20;;;;;;5049124;28;20016;-71
2022/08/25 11:35:27;;;;;;;1.65;1.55;;;30.10;59.10;;;;;;5047186;28;20029;-71
2022/08/25 11:38:20;;;;;;;2.97;1.88;;;30.40;59.50;;;;;;5047417;28;20386;-71
2022/08/25 11:41:04;;;;;;;1.75;1.50;;;30.00;58.70;;;;;;5049414;28;20036;-71
2022/08/25 11:44:07;;;;;;;5.68;1.55;;;29.90;59.80;;;;;;5046736;28;20037;-70
2022/08/25 11:47:05;;;;;;;3.67;1.60;;;29.80;60.10;;;;;;5071752;28;20040;-71
2022/08/25 11:49:51;;;;;;;1.98;1.85;;;29.80;62.60;;;;;;5041330;28;20055;-71
2022/08/25 11:52:32;;;;;;;2.70;1.40;;;29.80;63.30;;;;;;5045064;28;20135;-71
2022/08/25 11:55:19;;;;;;;3.03;1.60;;;29.60;63.60;;;;;;5047006;28;20036;-71
2022/08/25 11:57:47;;;;;;;2.33;1.60;;;30.10;63.80;;;;;;5041816;28;20028;-71
2022/08/25 12:00:36;;;;;;;3.08;1.77;;;29.90;62.60;;;;;;5045288;28;20513;-71
2022/08/25 12:03:30;;;;;;;3.90;1.40;;;29.40;60.70;;;;;;5048106;28;20036;-71
2022/08/25 12:06:25;;;;;;;1.85;1.30;;;29.50;59.60;;;;;;5057156;28;20024;-71
2022/08/25 12:09:02;;;;;;;4.55;1.85;;;29.50;59.80;;;;;;5052577;28;20043;-71
2022/08/25 12:11:45;;;;;;;4.07;1.80;;;29.70;58.70;;;;;;5060526;28;20020;-71
2022/08/25 12:14:15;;;;;;;;;;;29.60;59.40;;;;;;5048557;28;20021;-71
2022/08/25 12:16:50;;;;;;;2.22;1.75;;;29.50;59.50;;;;;;5048401;28;19905;-71
2022/08/25 12:19:35;;;;;;;1.70;1.17;;;29.70;58.40;;;;;;5046942;28;20027;-71
2022/08/25 12:22:01;;;;;;;5.32;1.73;;;29.70;59.00;;;;;;5051514;28;20078;-71
2022/08/25 12:24:41;;;;;;;3.00;1.88;;;30.20;59.20;;;;;;5054640;28;20036;-71
2022/08/25 12:27:25;;;;;;;4.03;2.20;;;29.80;59.80;;;;;;5053406;28;20489;-70
2022/08/25 12:30:22;;;;;;;4.28;1.85;;;29.80;58.10;;;;;;5050613;28;20355;-71
2022/08/25 12:33:10;;;;;;;4.30;1.80;;;29.70;57.40;;;;;;5044029;28;20060;-71
2022/08/25 12:36:04;;;;;;;1.48;1.38;;;29.70;57.10;;;;;;5055893;28;20028;-71
2022/08/25 12:38:46;;;;;;;2.17;1.80;;;29.90;57.30;;;;;;5052346;28;20673;-71
2022/08/25 12:41:21;;;;;;;3.72;1.98;;;29.90;59.50;;;;;;5050000;28;20025;-71
2022/08/25 12:43:50;;;;;;;2.33;1.85;;;29.90;57.00;;;;;;5052630;28;20094;-72
2022/08/25 12:46:18;;;;;;;2.13;1.70;;;29.80;58.20;;;;;;5069033;28;20064;-71
2022/08/25 12:49:22;;;;;;;3.38;1.45;;;29.90;58.00;;;;;;5053508;28;20025;-71
2022/08/25 12:51:53;;;;;;;3.70;1.55;;;30.10;57.10;;;;;;5053268;28;20039;-70
2022/08/25 12:54:42;;;;;;;1.80;1.50;;;30.50;58.70;;;;;;5069001;28;20024;-71
2022/08/25 12:57:41;;;;;;;4.50;1.92;;;30.20;59.10;;;;;;5071531;28;20025;-72
2022/08/25 13:00:20;;;;;;;5.78;2.33;;;30.00;57.50;;;;;;5055809;28;20045;-71
2022/08/25 13:03:00;;;;;;;3.10;1.88;;;30.00;57.10;;;;;;5062424;28;20037;-71
2022/08/25 13:05:43;;;;;;;4.53;2.10;;;30.00;57.30;;;;;;5048754;28;20029;-70
2022/08/25 13:08:47;;;;;;;3.63;1.67;;;30.10;57.70;;;;;;5070740;28;20035;-70
2022/08/25 13:11:19;;;;;;;2.53;2.17;;;30.10;57.80;;;;;;5063189;28;20034;-70
2022/08/25 13:13:47;;;;;;;4.30;1.90;;;30.30;60.40;;;;;;5071117;28;20086;-70
2022/08/25 13:16:19;;;;;;;3.63;1.60;;;30.10;60.00;;;;;;5059035;28;20086;-71